sensor_id;sensor_type;location;lat;lon;timestamp;temperature;humidity
23371;DHT22;11858;51.056;3.712;2023-05-10T00:01:07;13.30;99.90
23371;DHT22;11858;51.056;3.712;2023-05-10T00:03:33;13.10;99.90
23371;DHT22;11858;51.056;3.712;2023-05-10T00:05:59;13.20;99.90
23371;DHT22;11858;51.056;3.712;2023-05-10T00:08:25;13.10;99.90
23371;DHT22;11858;51.056;3.712;2023-05-10T00:10:51;13.20;99.90
23371;DHT22;11858;51.056;3.712;2023-05-10T00:13:17;13.30;99.90
23371;DHT22;11858;51.056;3.712;2023-05-10T00:15:42;13.30;99.90
23371;DHT22;11858;51.056;3.712;2023-05-10T00:18:08;13.20;99.90
23371;DHT22;11858;51.056;3.712;2023-05-10T00:20:34;13.20;99.90
23371;DHT22;11858;51.056;3.712;2023-05-10T00:22:59;13.20;99.90
23371;DHT22;11858;51.056;3.712;2023-05-10T00:25:25;13.20;99.90
23371;DHT22;11858;51.056;3.712;2023-05-10T00:27:51;13.40;99.90
23371;DHT22;11858;51.056;3.712;2023-05-10T00:30:17;13.40;99.90
23371;DHT22;11858;51.056;3.712;2023-05-10T00:32:43;13.30;99.90
23371;DHT22;11858;51.056;3.712;2023-05-10T00:35:09;13.30;99.90
23371;DHT22;11858;51.056;3.712;2023-05-10T00:37:35;13.40;99.90
23371;DHT22;11858;51.056;3.712;2023-05-10T00:40:00;13.50;99.90
23371;DHT22;11858;51.056;3.712;2023-05-10T00:42:26;13.40;99.90
23371;DHT22;11858;51.056;3.712;2023-05-10T00:44:52;13.30;99.90
23371;DHT22;11858;51.056;3.712;2023-05-10T00:47:18;13.20;99.90
23371;DHT22;11858;51.056;3.712;2023-05-10T00:49:43;13.30;99.90
23371;DHT22;11858;51.056;3.712;2023-05-10T00:52:10;13.40;99.90
23371;DHT22;11858;51.056;3.712;2023-05-10T00:54:36;13.50;99.90
23371;DHT22;11858;51.056;3.712;2023-05-10T00:57:02;13.40;99.90
23371;DHT22;11858;51.056;3.712;2023-05-10T00:59:29;13.50;99.90
23371;DHT22;11858;51.056;3.712;2023-05-10T01:01:54;13.50;99.90
23371;DHT22;11858;51.056;3.712;2023-05-10T01:04:20;13.40;99.90
23371;DHT22;11858;51.056;3.712;2023-05-10T01:06:51;13.30;99.90
23371;DHT22;11858;51.056;3.712;2023-05-10T01:09:18;13.30;99.90
23371;DHT22;11858;51.056;3.712;2023-05-10T01:11:44;13.20;99.90
23371;DHT22;11858;51.056;3.712;2023-05-10T01:14:10;13.30;99.90
23371;DHT22;11858;51.056;3.712;2023-05-10T01:16:38;13.30;99.90
23371;DHT22;11858;51.056;3.712;2023-05-10T01:19:19;13.40;99.90
23371;DHT22;11858;51.056;3.712;2023-05-10T01:25:02;13.40;99.90
23371;DHT22;11858;51.056;3.712;2023-05-10T01:38:43;13.50;99.90
23371;DHT22;11858;51.056;3.712;2023-05-10T01:47:01;13.50;99.90
23371;DHT22;11858;51.056;3.712;2023-05-10T01:49:41;13.50;99.90
23371;DHT22;11858;51.056;3.712;2023-05-10T01:52:10;13.40;99.90
23371;DHT22;11858;51.056;3.712;2023-05-10T01:54:41;13.30;99.90
23371;DHT22;11858;51.056;3.712;2023-05-10T01:57:08;13.30;99.90
23371;DHT22;11858;51.056;3.712;2023-05-10T01:59:36;13.30;99.90
23371;DHT22;11858;51.056;3.712;2023-05-10T02:02:07;13.30;99.90
23371;DHT22;11858;51.056;3.712;2023-05-10T02:04:38;13.20;99.90
23371;DHT22;11858;51.056;3.712;2023-05-10T02:07:05;13.20;99.90
23371;DHT22;11858;51.056;3.712;2023-05-10T02:09:33;13.20;99.90
23371;DHT22;11858;51.056;3.712;2023-05-10T02:12:01;13.30;99.90
23371;DHT22;11858;51.056;3.712;2023-05-10T02:14:30;13.20;99.90
23371;DHT22;11858;51.056;3.712;2023-05-10T02:16:58;13.20;99.90
23371;DHT22;11858;51.056;3.712;2023-05-10T02:19:26;13.30;99.90
23371;DHT22;11858;51.056;3.712;2023-05-10T02:21:54;13.20;99.90
23371;DHT22;11858;51.056;3.712;2023-05-10T02:24:21;13.20;99.90
23371;DHT22;11858;51.056;3.712;2023-05-10T02:26:49;13.20;99.90
23371;DHT22;11858;51.056;3.712;2023-05-10T02:29:17;13.20;99.90
23371;DHT22;11858;51.056;3.712;2023-05-10T02:31:43;13.30;99.90
23371;DHT22;11858;51.056;3.712;2023-05-10T02:34:10;13.20;99.90
23371;DHT22;11858;51.056;3.712;2023-05-10T02:36:38;13.30;99.90
23371;DHT22;11858;51.056;3.712;2023-05-10T02:39:04;13.30;99.90
23371;DHT22;11858;51.056;3.712;2023-05-10T02:41:35;13.30;99.90
23371;DHT22;11858;51.056;3.712;2023-05-10T02:44:02;13.30;99.90
23371;DHT22;11858;51.056;3.712;2023-05-10T02:46:29;13.30;99.90
23371;DHT22;11858;51.056;3.712;2023-05-10T02:48:55;13.30;99.90
23371;DHT22;11858;51.056;3.712;2023-05-10T02:51:28;13.20;99.90
23371;DHT22;11858;51.056;3.712;2023-05-10T02:53:56;13.20;99.90
23371;DHT22;11858;51.056;3.712;2023-05-10T02:56:34;13.20;99.90
23371;DHT22;11858;51.056;3.712;2023-05-10T02:59:01;13.30;99.90
23371;DHT22;11858;51.056;3.712;2023-05-10T03:01:27;13.20;99.90
23371;DHT22;11858;51.056;3.712;2023-05-10T03:03:52;13.20;99.90
23371;DHT22;11858;51.056;3.712;2023-05-10T03:06:19;13.20;99.90
23371;DHT22;11858;51.056;3.712;2023-05-10T03:08:45;13.20;99.90
23371;DHT22;11858;51.056;3.712;2023-05-10T03:17:25;13.20;99.90
23371;DHT22;11858;51.056;3.712;2023-05-10T03:19:56;13.30;99.90
23371;DHT22;11858;51.056;3.712;2023-05-10T03:22:44;13.30;99.90
23371;DHT22;11858;51.056;3.712;2023-05-10T03:25:12;13.20;99.90
23371;DHT22;11858;51.056;3.712;2023-05-10T03:27:40;13.30;99.90
23371;DHT22;11858;51.056;3.712;2023-05-10T03:30:12;13.20;99.90
23371;DHT22;11858;51.056;3.712;2023-05-10T03:32:38;13.20;99.90
23371;DHT22;11858;51.056;3.712;2023-05-10T03:35:11;13.20;99.90
23371;DHT22;11858;51.056;3.712;2023-05-10T03:37:37;13.20;99.90
23371;DHT22;11858;51.056;3.712;2023-05-10T03:40:04;13.30;99.90
23371;DHT22;11858;51.056;3.712;2023-05-10T03:42:30;13.30;99.90
23371;DHT22;11858;51.056;3.712;2023-05-10T03:44:56;13.20;99.90
23371;DHT22;11858;51.056;3.712;2023-05-10T03:47:21;13.20;99.90
23371;DHT22;11858;51.056;3.712;2023-05-10T03:49:47;13.10;99.90
23371;DHT22;11858;51.056;3.712;2023-05-10T03:52:13;13.10;99.90
23371;DHT22;11858;51.056;3.712;2023-05-10T03:54:38;13.10;99.90
23371;DHT22;11858;51.056;3.712;2023-05-10T03:57:04;13.20;99.90
23371;DHT22;11858;51.056;3.712;2023-05-10T03:59:30;13.20;99.90
23371;DHT22;11858;51.056;3.712;2023-05-10T04:01:56;13.20;99.90
23371;DHT22;11858;51.056;3.712;2023-05-10T04:04:21;13.20;99.90
23371;DHT22;11858;51.056;3.712;2023-05-10T04:06:48;13.20;99.90
23371;DHT22;11858;51.056;3.712;2023-05-10T04:09:14;13.20;99.90
23371;DHT22;11858;51.056;3.712;2023-05-10T04:11:39;13.20;99.90
23371;DHT22;11858;51.056;3.712;2023-05-10T04:14:05;13.30;99.90
23371;DHT22;11858;51.056;3.712;2023-05-10T04:16:31;13.20;99.90
23371;DHT22;11858;51.056;3.712;2023-05-10T04:18:56;13.20;99.90
23371;DHT22;11858;51.056;3.712;2023-05-10T04:21:22;13.30;99.90
23371;DHT22;11858;51.056;3.712;2023-05-10T04:23:48;13.20;99.90
23371;DHT22;11858;51.056;3.712;2023-05-10T04:26:14;13.20;99.90
23371;DHT22;11858;51.056;3.712;2023-05-10T04:28:40;13.20;99.90
23371;DHT22;11858;51.056;3.712;2023-05-10T04:31:07;13.30;99.90
23371;DHT22;11858;51.056;3.712;2023-05-10T04:33:33;13.30;99.90
23371;DHT22;11858;51.056;3.712;2023-05-10T04:35:59;13.40;99.90
23371;DHT22;11858;51.056;3.712;2023-05-10T04:38:26;13.40;99.90
23371;DHT22;11858;51.056;3.712;2023-05-10T04:40:52;13.30;99.90
23371;DHT22;11858;51.056;3.712;2023-05-10T04:43:18;13.50;99.90
23371;DHT22;11858;51.056;3.712;2023-05-10T04:45:44;13.50;99.90
23371;DHT22;11858;51.056;3.712;2023-05-10T04:48:09;13.40;99.90
23371;DHT22;11858;51.056;3.712;2023-05-10T04:50:35;13.40;99.90
23371;DHT22;11858;51.056;3.712;2023-05-10T04:53:01;13.50;99.90
23371;DHT22;11858;51.056;3.712;2023-05-10T04:55:26;13.40;99.90
23371;DHT22;11858;51.056;3.712;2023-05-10T04:57:52;13.30;99.90
23371;DHT22;11858;51.056;3.712;2023-05-10T05:00:20;13.40;99.90
23371;DHT22;11858;51.056;3.712;2023-05-10T05:02:46;13.40;99.90
23371;DHT22;11858;51.056;3.712;2023-05-10T05:05:12;13.40;99.90
23371;DHT22;11858;51.056;3.712;2023-05-10T05:07:38;13.40;99.90
23371;DHT22;11858;51.056;3.712;2023-05-10T05:10:05;13.40;99.90
23371;DHT22;11858;51.056;3.712;2023-05-10T05:12:31;13.40;99.90
23371;DHT22;11858;51.056;3.712;2023-05-10T05:14:57;13.40;99.90
23371;DHT22;11858;51.056;3.712;2023-05-10T05:17:23;13.40;99.90
23371;DHT22;11858;51.056;3.712;2023-05-10T05:19:48;13.40;99.90
23371;DHT22;11858;51.056;3.712;2023-05-10T05:22:14;13.50;99.90
23371;DHT22;11858;51.056;3.712;2023-05-10T05:24:39;13.50;99.90
23371;DHT22;11858;51.056;3.712;2023-05-10T05:27:05;13.60;99.90
23371;DHT22;11858;51.056;3.712;2023-05-10T05:29:31;13.50;99.90
23371;DHT22;11858;51.056;3.712;2023-05-10T05:31:57;13.50;99.90
23371;DHT22;11858;51.056;3.712;2023-05-10T05:34:23;13.60;99.90
23371;DHT22;11858;51.056;3.712;2023-05-10T05:36:49;13.50;99.90
23371;DHT22;11858;51.056;3.712;2023-05-10T05:39:15;13.60;99.90
23371;DHT22;11858;51.056;3.712;2023-05-10T05:41:41;13.80;99.90
23371;DHT22;11858;51.056;3.712;2023-05-10T05:44:07;13.80;99.90
23371;DHT22;11858;51.056;3.712;2023-05-10T05:46:33;13.80;99.90
23371;DHT22;11858;51.056;3.712;2023-05-10T05:48:59;13.90;99.90
23371;DHT22;11858;51.056;3.712;2023-05-10T05:51:25;14.00;99.90
23371;DHT22;11858;51.056;3.712;2023-05-10T05:53:50;14.00;99.90
23371;DHT22;11858;51.056;3.712;2023-05-10T05:56:16;13.90;99.90
23371;DHT22;11858;51.056;3.712;2023-05-10T05:58:43;13.90;99.90
23371;DHT22;11858;51.056;3.712;2023-05-10T06:01:09;14.00;99.90
23371;DHT22;11858;51.056;3.712;2023-05-10T06:03:35;14.10;99.90
23371;DHT22;11858;51.056;3.712;2023-05-10T06:06:00;14.10;99.90
23371;DHT22;11858;51.056;3.712;2023-05-10T06:08:26;14.10;99.90
23371;DHT22;11858;51.056;3.712;2023-05-10T06:10:52;14.10;99.90
23371;DHT22;11858;51.056;3.712;2023-05-10T06:13:17;14.20;99.90
23371;DHT22;11858;51.056;3.712;2023-05-10T06:15:43;14.20;99.90
23371;DHT22;11858;51.056;3.712;2023-05-10T06:18:09;14.20;99.90
23371;DHT22;11858;51.056;3.712;2023-05-10T06:20:34;14.40;99.90
23371;DHT22;11858;51.056;3.712;2023-05-10T06:23:00;14.30;99.90
23371;DHT22;11858;51.056;3.712;2023-05-10T06:25:26;14.30;99.90
23371;DHT22;11858;51.056;3.712;2023-05-10T06:27:51;14.30;99.90
23371;DHT22;11858;51.056;3.712;2023-05-10T06:30:24;14.30;99.90
23371;DHT22;11858;51.056;3.712;2023-05-10T06:32:53;14.20;99.90
23371;DHT22;11858;51.056;3.712;2023-05-10T06:35:18;14.20;99.90
23371;DHT22;11858;51.056;3.712;2023-05-10T06:37:44;14.30;99.90
23371;DHT22;11858;51.056;3.712;2023-05-10T06:40:10;14.20;99.90
23371;DHT22;11858;51.056;3.712;2023-05-10T06:42:36;14.20;99.90
23371;DHT22;11858;51.056;3.712;2023-05-10T06:45:01;14.20;99.90
23371;DHT22;11858;51.056;3.712;2023-05-10T06:47:27;14.10;99.90
23371;DHT22;11858;51.056;3.712;2023-05-10T06:49:53;14.10;99.90
23371;DHT22;11858;51.056;3.712;2023-05-10T06:52:19;14.20;99.90
23371;DHT22;11858;51.056;3.712;2023-05-10T06:54:44;14.20;99.90
23371;DHT22;11858;51.056;3.712;2023-05-10T06:57:10;14.30;99.90
23371;DHT22;11858;51.056;3.712;2023-05-10T06:59:36;14.50;99.90
23371;DHT22;11858;51.056;3.712;2023-05-10T07:02:01;14.70;99.90
23371;DHT22;11858;51.056;3.712;2023-05-10T07:04:27;15.00;99.90
23371;DHT22;11858;51.056;3.712;2023-05-10T07:06:53;15.20;99.90
23371;DHT22;11858;51.056;3.712;2023-05-10T07:09:19;15.30;99.90
23371;DHT22;11858;51.056;3.712;2023-05-10T07:11:44;15.30;99.90
23371;DHT22;11858;51.056;3.712;2023-05-10T07:14:10;15.20;99.90
23371;DHT22;11858;51.056;3.712;2023-05-10T07:16:36;15.00;99.90
23371;DHT22;11858;51.056;3.712;2023-05-10T07:19:01;15.10;99.90
23371;DHT22;11858;51.056;3.712;2023-05-10T07:21:27;14.90;99.90
23371;DHT22;11858;51.056;3.712;2023-05-10T07:23:54;14.80;99.90
23371;DHT22;11858;51.056;3.712;2023-05-10T07:26:20;14.50;99.90
23371;DHT22;11858;51.056;3.712;2023-05-10T07:28:46;14.30;99.90
23371;DHT22;11858;51.056;3.712;2023-05-10T07:31:12;14.20;99.90
23371;DHT22;11858;51.056;3.712;2023-05-10T07:33:38;14.30;99.90
23371;DHT22;11858;51.056;3.712;2023-05-10T07:36:03;14.30;99.90
23371;DHT22;11858;51.056;3.712;2023-05-10T07:38:29;14.40;99.90
23371;DHT22;11858;51.056;3.712;2023-05-10T07:40:55;14.50;99.90
23371;DHT22;11858;51.056;3.712;2023-05-10T07:43:20;14.60;99.90
23371;DHT22;11858;51.056;3.712;2023-05-10T07:45:46;14.70;99.90
23371;DHT22;11858;51.056;3.712;2023-05-10T07:48:12;14.70;99.90
23371;DHT22;11858;51.056;3.712;2023-05-10T07:50:37;14.70;99.90
23371;DHT22;11858;51.056;3.712;2023-05-10T07:53:03;14.60;99.90
23371;DHT22;11858;51.056;3.712;2023-05-10T07:55:28;14.70;99.90
23371;DHT22;11858;51.056;3.712;2023-05-10T07:57:54;14.70;99.90
23371;DHT22;11858;51.056;3.712;2023-05-10T08:00:20;14.80;99.90
23371;DHT22;11858;51.056;3.712;2023-05-10T08:02:46;14.90;99.90
23371;DHT22;11858;51.056;3.712;2023-05-10T08:05:12;15.00;99.90
23371;DHT22;11858;51.056;3.712;2023-05-10T08:07:38;15.00;99.90
23371;DHT22;11858;51.056;3.712;2023-05-10T08:10:05;15.40;99.90
23371;DHT22;11858;51.056;3.712;2023-05-10T08:12:31;15.30;99.90
23371;DHT22;11858;51.056;3.712;2023-05-10T08:14:56;15.40;99.90
23371;DHT22;11858;51.056;3.712;2023-05-10T08:17:22;15.40;99.90
23371;DHT22;11858;51.056;3.712;2023-05-10T08:19:48;15.30;99.90
23371;DHT22;11858;51.056;3.712;2023-05-10T08:22:13;15.40;99.90
23371;DHT22;11858;51.056;3.712;2023-05-10T08:24:39;15.40;99.90
23371;DHT22;11858;51.056;3.712;2023-05-10T08:27:08;15.30;99.90
23371;DHT22;11858;51.056;3.712;2023-05-10T08:29:34;15.20;99.90
23371;DHT22;11858;51.056;3.712;2023-05-10T08:31:59;15.10;99.90
23371;DHT22;11858;51.056;3.712;2023-05-10T08:34:26;15.00;99.90
23371;DHT22;11858;51.056;3.712;2023-05-10T08:36:52;15.00;99.90
23371;DHT22;11858;51.056;3.712;2023-05-10T08:39:18;15.00;99.90
23371;DHT22;11858;51.056;3.712;2023-05-10T08:41:44;15.10;99.90
23371;DHT22;11858;51.056;3.712;2023-05-10T08:44:12;15.20;99.90
23371;DHT22;11858;51.056;3.712;2023-05-10T08:46:41;15.30;99.90
23371;DHT22;11858;51.056;3.712;2023-05-10T08:49:11;15.20;99.90
23371;DHT22;11858;51.056;3.712;2023-05-10T08:51:40;15.10;99.90
23371;DHT22;11858;51.056;3.712;2023-05-10T08:54:09;15.10;99.90
23371;DHT22;11858;51.056;3.712;2023-05-10T08:56:35;15.00;99.90
23371;DHT22;11858;51.056;3.712;2023-05-10T08:59:01;14.80;99.90
23371;DHT22;11858;51.056;3.712;2023-05-10T09:01:28;14.70;99.90
23371;DHT22;11858;51.056;3.712;2023-05-10T09:03:56;14.50;99.90
23371;DHT22;11858;51.056;3.712;2023-05-10T09:06:23;14.40;99.90
23371;DHT22;11858;51.056;3.712;2023-05-10T09:08:49;14.40;99.90
23371;DHT22;11858;51.056;3.712;2023-05-10T09:11:16;14.40;99.90
23371;DHT22;11858;51.056;3.712;2023-05-10T09:13:42;14.50;99.90
23371;DHT22;11858;51.056;3.712;2023-05-10T09:16:09;14.60;99.90
23371;DHT22;11858;51.056;3.712;2023-05-10T09:18:34;14.80;99.90
23371;DHT22;11858;51.056;3.712;2023-05-10T09:21:00;14.80;99.90
23371;DHT22;11858;51.056;3.712;2023-05-10T09:23:26;14.90;99.90
23371;DHT22;11858;51.056;3.712;2023-05-10T09:26:04;15.00;99.90
23371;DHT22;11858;51.056;3.712;2023-05-10T09:28:34;15.20;99.90
23371;DHT22;11858;51.056;3.712;2023-05-10T09:31:14;15.30;99.90
23371;DHT22;11858;51.056;3.712;2023-05-10T09:33:47;15.60;99.90
23371;DHT22;11858;51.056;3.712;2023-05-10T09:36:13;15.80;99.90
23371;DHT22;11858;51.056;3.712;2023-05-10T09:38:51;15.90;99.90
23371;DHT22;11858;51.056;3.712;2023-05-10T09:41:21;16.20;99.90
23371;DHT22;11858;51.056;3.712;2023-05-10T09:43:48;16.60;99.90
23371;DHT22;11858;51.056;3.712;2023-05-10T09:46:15;16.80;99.90
23371;DHT22;11858;51.056;3.712;2023-05-10T09:48:46;16.80;99.90
23371;DHT22;11858;51.056;3.712;2023-05-10T09:51:23;17.00;99.90
23371;DHT22;11858;51.056;3.712;2023-05-10T09:54:09;17.10;99.90
23371;DHT22;11858;51.056;3.712;2023-05-10T09:56:36;17.40;99.90
23371;DHT22;11858;51.056;3.712;2023-05-10T09:59:05;17.80;99.90
23371;DHT22;11858;51.056;3.712;2023-05-10T10:01:31;18.10;99.90
23371;DHT22;11858;51.056;3.712;2023-05-10T10:03:57;18.30;99.90
23371;DHT22;11858;51.056;3.712;2023-05-10T10:06:24;18.50;99.90
23371;DHT22;11858;51.056;3.712;2023-05-10T10:08:50;19.00;99.90
23371;DHT22;11858;51.056;3.712;2023-05-10T10:11:16;18.80;99.90
23371;DHT22;11858;51.056;3.712;2023-05-10T10:13:42;18.80;99.90
23371;DHT22;11858;51.056;3.712;2023-05-10T10:16:08;19.50;99.90
23371;DHT22;11858;51.056;3.712;2023-05-10T10:18:36;19.70;99.90
23371;DHT22;11858;51.056;3.712;2023-05-10T10:21:07;20.30;99.90
23371;DHT22;11858;51.056;3.712;2023-05-10T10:23:35;20.30;99.90
23371;DHT22;11858;51.056;3.712;2023-05-10T10:26:03;20.10;99.90
23371;DHT22;11858;51.056;3.712;2023-05-10T10:28:54;20.20;99.90
23371;DHT22;11858;51.056;3.712;2023-05-10T10:31:39;20.40;99.90
23371;DHT22;11858;51.056;3.712;2023-05-10T10:34:08;20.80;99.90
23371;DHT22;11858;51.056;3.712;2023-05-10T10:36:45;21.00;99.90
23371;DHT22;11858;51.056;3.712;2023-05-10T10:39:11;20.50;99.90
23371;DHT22;11858;51.056;3.712;2023-05-10T10:50:05;19.20;99.90
23371;DHT22;11858;51.056;3.712;2023-05-10T10:52:42;18.80;99.90
23371;DHT22;11858;51.056;3.712;2023-05-10T10:55:12;18.50;99.90
23371;DHT22;11858;51.056;3.712;2023-05-10T11:02:58;17.90;99.90
23371;DHT22;11858;51.056;3.712;2023-05-10T11:08:28;17.90;99.90
23371;DHT22;11858;51.056;3.712;2023-05-10T11:11:05;17.90;99.90
23371;DHT22;11858;51.056;3.712;2023-05-10T11:13:43;17.80;99.90
23371;DHT22;11858;51.056;3.712;2023-05-10T11:18:39;17.20;99.90
23371;DHT22;11858;51.056;3.712;2023-05-10T11:21:06;17.10;99.90
23371;DHT22;11858;51.056;3.712;2023-05-10T11:23:56;16.80;99.90
23371;DHT22;11858;51.056;3.712;2023-05-10T11:26:33;16.40;99.90
23371;DHT22;11858;51.056;3.712;2023-05-10T11:28:59;16.00;99.90
23371;DHT22;11858;51.056;3.712;2023-05-10T11:31:26;15.80;99.90
23371;DHT22;11858;51.056;3.712;2023-05-10T11:33:59;15.80;99.90
23371;DHT22;11858;51.056;3.712;2023-05-10T11:36:28;15.80;99.90
23371;DHT22;11858;51.056;3.712;2023-05-10T11:38:55;15.90;99.90
23371;DHT22;11858;51.056;3.712;2023-05-10T11:41:22;15.80;99.90
23371;DHT22;11858;51.056;3.712;2023-05-10T11:43:53;16.00;99.90
23371;DHT22;11858;51.056;3.712;2023-05-10T11:46:21;16.00;99.90
23371;DHT22;11858;51.056;3.712;2023-05-10T11:48:57;16.30;99.90
23371;DHT22;11858;51.056;3.712;2023-05-10T11:51:23;16.60;99.90
23371;DHT22;11858;51.056;3.712;2023-05-10T11:53:53;16.90;99.90
23371;DHT22;11858;51.056;3.712;2023-05-10T11:56:20;17.60;99.90
23371;DHT22;11858;51.056;3.712;2023-05-10T11:58:55;18.20;99.90
23371;DHT22;11858;51.056;3.712;2023-05-10T12:01:21;18.80;99.90
23371;DHT22;11858;51.056;3.712;2023-05-10T12:03:49;19.00;99.90
23371;DHT22;11858;51.056;3.712;2023-05-10T12:06:15;19.20;99.90
23371;DHT22;11858;51.056;3.712;2023-05-10T12:08:44;18.50;99.90
23371;DHT22;11858;51.056;3.712;2023-05-10T12:11:12;18.60;99.90
23371;DHT22;11858;51.056;3.712;2023-05-10T12:13:42;18.60;99.90
23371;DHT22;11858;51.056;3.712;2023-05-10T12:16:18;18.30;99.90
23371;DHT22;11858;51.056;3.712;2023-05-10T12:18:45;18.00;99.90
23371;DHT22;11858;51.056;3.712;2023-05-10T12:21:11;17.50;99.90
23371;DHT22;11858;51.056;3.712;2023-05-10T12:23:39;17.70;99.90
23371;DHT22;11858;51.056;3.712;2023-05-10T12:26:05;17.80;99.90
23371;DHT22;11858;51.056;3.712;2023-05-10T12:28:32;17.90;99.90
23371;DHT22;11858;51.056;3.712;2023-05-10T12:31:02;17.70;99.90
23371;DHT22;11858;51.056;3.712;2023-05-10T12:33:38;17.50;99.90
23371;DHT22;11858;51.056;3.712;2023-05-10T12:36:05;17.50;99.90
23371;DHT22;11858;51.056;3.712;2023-05-10T12:38:35;17.30;99.90
23371;DHT22;11858;51.056;3.712;2023-05-10T12:41:05;17.00;99.90
23371;DHT22;11858;51.056;3.712;2023-05-10T12:43:32;16.90;99.90
23371;DHT22;11858;51.056;3.712;2023-05-10T12:45:58;16.60;99.90
23371;DHT22;11858;51.056;3.712;2023-05-10T12:48:24;16.40;99.90
23371;DHT22;11858;51.056;3.712;2023-05-10T12:50:50;16.10;99.90
23371;DHT22;11858;51.056;3.712;2023-05-10T12:53:16;16.00;99.90
23371;DHT22;11858;51.056;3.712;2023-05-10T12:55:43;15.90;99.90
23371;DHT22;11858;51.056;3.712;2023-05-10T12:58:09;15.80;99.90
23371;DHT22;11858;51.056;3.712;2023-05-10T13:00:35;15.60;99.90
23371;DHT22;11858;51.056;3.712;2023-05-10T13:03:06;15.40;99.90
23371;DHT22;11858;51.056;3.712;2023-05-10T13:05:35;15.30;99.90
23371;DHT22;11858;51.056;3.712;2023-05-10T13:08:01;15.30;99.90
23371;DHT22;11858;51.056;3.712;2023-05-10T13:10:28;15.20;99.90
23371;DHT22;11858;51.056;3.712;2023-05-10T13:12:54;15.20;99.90
23371;DHT22;11858;51.056;3.712;2023-05-10T13:15:20;15.20;99.90
23371;DHT22;11858;51.056;3.712;2023-05-10T13:17:46;15.10;99.90
23371;DHT22;11858;51.056;3.712;2023-05-10T13:20:11;14.90;99.90
23371;DHT22;11858;51.056;3.712;2023-05-10T13:22:37;15.00;99.90
23371;DHT22;11858;51.056;3.712;2023-05-10T13:25:03;14.90;99.90
23371;DHT22;11858;51.056;3.712;2023-05-10T13:27:29;14.80;99.90
23371;DHT22;11858;51.056;3.712;2023-05-10T13:29:54;14.50;99.90
23371;DHT22;11858;51.056;3.712;2023-05-10T13:32:20;14.60;99.90
23371;DHT22;11858;51.056;3.712;2023-05-10T13:34:46;14.70;99.90
23371;DHT22;11858;51.056;3.712;2023-05-10T13:37:12;14.60;99.90
23371;DHT22;11858;51.056;3.712;2023-05-10T13:39:38;14.60;99.90
23371;DHT22;11858;51.056;3.712;2023-05-10T13:42:04;14.70;99.90
23371;DHT22;11858;51.056;3.712;2023-05-10T13:44:30;14.60;99.90
23371;DHT22;11858;51.056;3.712;2023-05-10T13:46:56;14.60;99.90
23371;DHT22;11858;51.056;3.712;2023-05-10T13:49:22;14.60;99.90
23371;DHT22;11858;51.056;3.712;2023-05-10T13:51:47;14.70;99.90
23371;DHT22;11858;51.056;3.712;2023-05-10T13:54:13;14.60;99.90
23371;DHT22;11858;51.056;3.712;2023-05-10T13:56:39;14.80;99.90
23371;DHT22;11858;51.056;3.712;2023-05-10T13:59:06;14.80;99.90
23371;DHT22;11858;51.056;3.712;2023-05-10T14:01:33;14.90;99.90
23371;DHT22;11858;51.056;3.712;2023-05-10T14:03:59;14.90;99.90
23371;DHT22;11858;51.056;3.712;2023-05-10T14:06:25;15.00;99.90
23371;DHT22;11858;51.056;3.712;2023-05-10T14:08:52;14.80;99.90
23371;DHT22;11858;51.056;3.712;2023-05-10T14:11:18;14.80;99.90
23371;DHT22;11858;51.056;3.712;2023-05-10T14:13:44;14.80;99.90
23371;DHT22;11858;51.056;3.712;2023-05-10T14:16:09;14.90;99.90
23371;DHT22;11858;51.056;3.712;2023-05-10T14:18:35;14.80;99.90
23371;DHT22;11858;51.056;3.712;2023-05-10T14:21:02;14.90;99.90
23371;DHT22;11858;51.056;3.712;2023-05-10T14:23:28;15.10;99.90
23371;DHT22;11858;51.056;3.712;2023-05-10T14:25:54;15.10;99.90
23371;DHT22;11858;51.056;3.712;2023-05-10T14:28:20;15.10;99.90
23371;DHT22;11858;51.056;3.712;2023-05-10T14:30:46;15.10;99.90
23371;DHT22;11858;51.056;3.712;2023-05-10T14:33:12;15.20;99.90
23371;DHT22;11858;51.056;3.712;2023-05-10T14:35:38;15.30;99.90
23371;DHT22;11858;51.056;3.712;2023-05-10T14:38:04;15.50;99.90
23371;DHT22;11858;51.056;3.712;2023-05-10T14:40:30;15.60;99.90
23371;DHT22;11858;51.056;3.712;2023-05-10T14:42:57;15.60;99.90
23371;DHT22;11858;51.056;3.712;2023-05-10T14:45:23;15.70;99.90
23371;DHT22;11858;51.056;3.712;2023-05-10T14:47:49;15.80;99.90
23371;DHT22;11858;51.056;3.712;2023-05-10T14:50:15;15.80;99.90
23371;DHT22;11858;51.056;3.712;2023-05-10T14:52:42;15.80;99.90
23371;DHT22;11858;51.056;3.712;2023-05-10T14:55:08;15.90;99.90
23371;DHT22;11858;51.056;3.712;2023-05-10T14:57:34;16.00;99.90
23371;DHT22;11858;51.056;3.712;2023-05-10T14:59:59;16.20;99.90
23371;DHT22;11858;51.056;3.712;2023-05-10T15:02:25;16.30;99.90
23371;DHT22;11858;51.056;3.712;2023-05-10T15:04:51;16.40;99.90
23371;DHT22;11858;51.056;3.712;2023-05-10T15:07:17;16.40;99.90
23371;DHT22;11858;51.056;3.712;2023-05-10T15:09:46;16.40;99.90
23371;DHT22;11858;51.056;3.712;2023-05-10T15:12:12;16.60;99.90
23371;DHT22;11858;51.056;3.712;2023-05-10T15:14:38;16.60;99.90
23371;DHT22;11858;51.056;3.712;2023-05-10T15:17:06;16.50;99.90
23371;DHT22;11858;51.056;3.712;2023-05-10T15:19:32;16.40;99.90
23371;DHT22;11858;51.056;3.712;2023-05-10T15:21:58;16.50;99.90
23371;DHT22;11858;51.056;3.712;2023-05-10T15:24:24;16.50;99.90
23371;DHT22;11858;51.056;3.712;2023-05-10T15:26:50;16.40;99.90
23371;DHT22;11858;51.056;3.712;2023-05-10T15:29:16;16.40;99.90
23371;DHT22;11858;51.056;3.712;2023-05-10T15:31:49;16.50;99.90
23371;DHT22;11858;51.056;3.712;2023-05-10T15:34:15;16.50;99.90
23371;DHT22;11858;51.056;3.712;2023-05-10T15:36:41;16.60;99.90
23371;DHT22;11858;51.056;3.712;2023-05-10T15:39:07;16.60;99.90
23371;DHT22;11858;51.056;3.712;2023-05-10T15:41:35;16.70;99.90
23371;DHT22;11858;51.056;3.712;2023-05-10T15:44:00;16.60;99.90
23371;DHT22;11858;51.056;3.712;2023-05-10T15:46:27;16.80;99.90
23371;DHT22;11858;51.056;3.712;2023-05-10T15:48:53;16.80;99.90
23371;DHT22;11858;51.056;3.712;2023-05-10T15:51:19;17.00;99.90
23371;DHT22;11858;51.056;3.712;2023-05-10T15:53:45;17.10;99.90
23371;DHT22;11858;51.056;3.712;2023-05-10T15:56:11;17.10;99.90
23371;DHT22;11858;51.056;3.712;2023-05-10T15:58:40;17.20;99.90
23371;DHT22;11858;51.056;3.712;2023-05-10T16:01:06;17.20;99.90
23371;DHT22;11858;51.056;3.712;2023-05-10T16:03:33;17.40;99.90
23371;DHT22;11858;51.056;3.712;2023-05-10T16:05:59;17.90;99.90
23371;DHT22;11858;51.056;3.712;2023-05-10T16:08:24;18.20;99.90
23371;DHT22;11858;51.056;3.712;2023-05-10T16:10:50;18.50;99.90
23371;DHT22;11858;51.056;3.712;2023-05-10T16:13:16;19.10;99.90
23371;DHT22;11858;51.056;3.712;2023-05-10T16:15:42;19.40;99.90